Ana Sayfa
METAR-TAF:

METAR-TAF

Havaalanları :

Block Island, Rhode Island, Amerika Birleşik Devletleri

Enlem: 41-10N, Boylam: 071-34W, yükseklik: 33 m

Güncel hava durumu gözlemi

Rapor saat 11:56 UTC de 54 dakika önce yapıldı.
Rüzgar batı/kuzeybatıdan 6 kt
Sıcaklık 14°C
Nem 72%
Basınç 1024 hPa
Görüş mesafesi: 16.1 km
Açık gökyüzü

METAR: KBID 251156Z AUTO 29006KT 10SM CLR 14/09 A3023 RMK AO2 SLP241 7//// T01390094 10139 20089 53015

Saat: 08:50 (12:50 UTC)


TAF: eksik

4.000'den fazla havaalanı için hava durumu gözlemleri ve tahminleri (METAR ve TAF raporları).

Kullanılabilir istasyonlar harita üzerinde sarı ve kırmızı noktalarla gösterilir.

İstasyonun adını görmek için fareyi noktanın üzerinde gezdirin.

Sonrasında hava gözlem ve tahminlerini görmek için tıklayın.

Haritayı değiştirmek için: yaklaştırmak için siyah artı işaretli yeşil düğmeye ve uzaklaştırmak için de eksi işaretli düğmeye hızla tıklayın; bitişik haritalar için yeşil okları kullanın.


METAR-TAF: